createdAt,value
2019-04-10T00:01:48.941Z,10.00
2019-04-10T00:04:18.912Z,10.00
2019-04-10T00:06:48.621Z,10.00
2019-04-10T00:09:18.990Z,10.00
2019-04-10T00:11:49.344Z,10.00
2019-04-10T00:14:18.671Z,10.00
2019-04-10T00:16:48.844Z,10.00
2019-04-10T00:19:18.318Z,10.00
2019-04-10T00:21:47.903Z,10.00
2019-04-10T00:24:17.228Z,10.00
2019-04-10T00:26:46.520Z,10.00
2019-04-10T00:29:18.251Z,10.00
2019-04-10T00:31:48.746Z,10.00
2019-04-10T00:34:18.165Z,10.00
2019-04-10T00:36:47.458Z,10.00
2019-04-10T00:39:16.753Z,10.00
2019-04-10T00:41:46.218Z,10.00
2019-04-10T00:44:15.631Z,10.00
2019-04-10T00:46:44.938Z,9.90
2019-04-10T00:49:15.367Z,9.90
2019-04-10T00:51:45.803Z,10.00
2019-04-10T00:54:16.027Z,10.00
2019-04-10T00:56:45.460Z,10.00
2019-04-10T00:59:15.673Z,10.00
2019-04-10T01:01:45.736Z,10.00
2019-04-10T01:04:15.151Z,10.00
2019-04-10T01:06:44.483Z,10.00
2019-04-10T01:09:14.036Z,10.10
2019-04-10T01:11:43.457Z,10.10
2019-04-10T01:14:13.693Z,10.10
2019-04-10T01:16:43.970Z,10.10
2019-04-10T01:19:13.344Z,10.00
2019-04-10T01:21:42.652Z,10.00
2019-04-10T01:24:11.939Z,10.00
2019-04-10T01:26:41.259Z,10.00
2019-04-10T01:29:11.357Z,10.00
2019-04-10T01:31:41.439Z,10.00
2019-04-10T01:34:11.487Z,10.00
2019-04-10T01:36:40.819Z,10.00
2019-04-10T01:39:11.762Z,10.00
2019-04-10T01:41:41.752Z,10.00
2019-04-10T01:44:11.180Z,9.90
2019-04-10T01:46:40.443Z,10.00
2019-04-10T01:49:09.739Z,9.90
2019-04-10T01:51:39.387Z,9.90
2019-04-10T01:54:09.011Z,9.90
2019-04-10T01:56:38.439Z,9.90
2019-04-10T01:59:07.810Z,9.90
2019-04-10T02:01:38.843Z,9.90
2019-04-10T02:04:08.886Z,9.90
2019-04-10T02:06:38.270Z,9.80
2019-04-10T02:09:09.098Z,9.90
2019-04-10T02:11:38.398Z,9.90
2019-04-10T02:14:07.862Z,9.90
2019-04-10T02:16:37.259Z,9.90
2019-04-10T02:19:06.587Z,9.90
2019-04-10T02:21:36.012Z,9.80
2019-04-10T02:24:05.454Z,9.80
2019-04-10T02:26:35.858Z,9.80
2019-04-10T02:29:05.415Z,9.70
2019-04-10T02:31:34.705Z,9.70
2019-04-10T02:34:04.769Z,9.70
2019-04-10T02:36:36.264Z,9.70
2019-04-10T02:39:17.823Z,9.70
2019-04-10T02:41:38.612Z,9.70
2019-04-10T02:44:08.176Z,9.70
2019-04-10T02:46:38.757Z,9.70
2019-04-10T02:49:08.725Z,9.70
2019-04-10T02:51:38.896Z,9.70
2019-04-10T02:54:09.461Z,9.70
2019-04-10T02:56:40.819Z,9.60
2019-04-10T02:59:11.255Z,9.60
2019-04-10T03:01:41.666Z,9.60
2019-04-10T03:04:11.851Z,9.60
2019-04-10T03:06:42.874Z,9.60
2019-04-10T03:09:28.956Z,9.60
2019-04-10T03:11:43.979Z,9.60
2019-04-10T03:14:14.787Z,9.50
2019-04-10T03:16:44.295Z,9.50
2019-04-10T03:19:13.682Z,9.50
2019-04-10T03:21:43.044Z,9.50
2019-04-10T03:24:12.426Z,9.50
2019-04-10T03:26:41.711Z,9.40
2019-04-10T03:29:11.594Z,9.40
2019-04-10T03:31:41.639Z,9.40
2019-04-10T03:34:31.295Z,9.40
2019-04-10T03:37:00.010Z,9.40
2019-04-10T03:39:33.348Z,9.30
2019-04-10T03:42:02.003Z,9.30
2019-04-10T03:44:32.488Z,9.30
2019-04-10T03:47:02.915Z,9.20
2019-04-10T03:49:32.346Z,9.20
2019-04-10T03:52:01.646Z,9.20
2019-04-10T03:54:32.177Z,9.10
2019-04-10T03:57:02.490Z,9.20
2019-04-10T03:59:32.673Z,9.20
2019-04-10T04:02:03.100Z,9.10
2019-04-10T04:04:33.338Z,9.00
2019-04-10T04:07:02.730Z,9.00
2019-04-10T04:09:32.034Z,9.00
2019-04-10T04:12:02.326Z,8.90
2019-04-10T04:14:32.589Z,8.90
2019-04-10T04:17:02.056Z,8.90
2019-04-10T04:19:32.387Z,8.90
2019-04-10T04:22:01.728Z,8.90
2019-04-10T04:24:31.584Z,8.90
2019-04-10T04:27:01.006Z,9.00
2019-04-10T04:29:30.397Z,9.00
2019-04-10T04:31:59.715Z,9.00
2019-04-10T04:34:29.177Z,9.00
2019-04-10T04:36:58.907Z,9.00
2019-04-10T04:39:29.882Z,9.00
2019-04-10T04:41:59.462Z,8.90
2019-04-10T04:44:29.162Z,8.90
2019-04-10T04:46:59.106Z,8.90
2019-04-10T04:49:28.594Z,8.80
2019-04-10T04:51:58.154Z,8.90
2019-04-10T04:54:27.559Z,8.80
2019-04-10T04:56:56.851Z,8.90
2019-04-10T04:59:26.427Z,8.80
2019-04-10T05:01:55.684Z,8.70
2019-04-10T05:04:25.059Z,8.70
2019-04-10T05:06:55.504Z,8.70
2019-04-10T05:09:33.072Z,8.70
2019-04-10T05:11:56.232Z,8.70
2019-04-10T05:14:25.528Z,8.70
2019-04-10T05:16:55.491Z,8.60
2019-04-10T05:19:25.620Z,8.70
2019-04-10T05:21:55.223Z,8.60
2019-04-10T05:24:24.510Z,8.90
2019-04-10T05:26:54.130Z,9.10
2019-04-10T05:29:23.415Z,9.10
2019-04-10T05:31:53.084Z,9.00
2019-04-10T05:34:22.584Z,9.30
2019-04-10T05:36:51.875Z,9.40
2019-04-10T05:39:22.366Z,9.30
2019-04-10T05:41:51.841Z,9.30
2019-04-10T05:44:21.120Z,9.20
2019-04-10T05:46:50.411Z,9.10
2019-04-10T05:49:20.659Z,9.10
2019-04-10T05:51:50.137Z,9.10
2019-04-10T05:54:19.467Z,9.10
2019-04-10T05:56:49.019Z,9.00
2019-04-10T05:59:18.318Z,8.90
2019-04-10T06:01:48.482Z,8.90
2019-04-10T06:04:18.893Z,8.90
2019-04-10T06:06:48.683Z,8.80
2019-04-10T06:09:17.995Z,8.80
2019-04-10T06:11:47.511Z,8.80
2019-04-10T06:14:17.770Z,8.80
2019-04-10T06:16:47.516Z,8.70
2019-04-10T06:19:17.803Z,8.70
2019-04-10T06:21:48.166Z,8.70
2019-04-10T06:24:18.320Z,8.70
2019-04-10T06:26:47.984Z,8.70
2019-04-10T06:29:17.439Z,8.70
2019-04-10T06:31:47.202Z,8.70
2019-04-10T06:34:18.599Z,8.80
2019-04-10T06:36:47.717Z,8.80
2019-04-10T06:39:17.034Z,8.80
2019-04-10T06:41:46.747Z,8.80
2019-04-10T06:44:17.572Z,8.80
2019-04-10T06:46:46.951Z,8.80
2019-04-10T06:49:16.454Z,8.80
2019-04-10T06:51:45.822Z,8.80
2019-04-10T06:54:16.447Z,8.80
2019-04-10T06:56:48.296Z,8.80
2019-04-10T06:59:16.928Z,8.80
2019-04-10T07:01:51.218Z,8.80
2019-04-10T07:04:19.259Z,8.80
2019-04-10T07:06:58.044Z,8.90
2019-04-10T07:09:26.463Z,8.90
2019-04-10T07:11:58.265Z,9.00
2019-04-10T07:14:26.685Z,9.00
2019-04-10T07:17:00.652Z,9.00
2019-04-10T07:19:28.153Z,9.00
2019-04-10T07:22:00.348Z,8.90
2019-04-10T07:24:29.228Z,9.00
2019-04-10T07:27:03.230Z,9.00
2019-04-10T07:29:30.723Z,9.00
2019-04-10T07:32:00.514Z,9.10
2019-04-10T07:34:30.067Z,9.20
2019-04-10T07:37:00.201Z,9.20
2019-04-10T07:39:32.525Z,9.20
2019-04-10T07:42:00.746Z,9.30
2019-04-10T07:44:30.054Z,9.30
2019-04-10T07:47:00.738Z,9.30
2019-04-10T07:49:31.348Z,9.30
2019-04-10T07:52:02.448Z,9.40
2019-04-10T07:54:33.055Z,9.40
2019-04-10T07:57:02.544Z,9.50
2019-04-10T07:59:31.831Z,9.60
2019-04-10T08:02:02.380Z,9.60
2019-04-10T08:04:31.907Z,9.70
2019-04-10T08:07:01.187Z,9.80
2019-04-10T08:09:30.799Z,9.90
2019-04-10T08:12:00.076Z,9.90
2019-04-10T08:14:29.710Z,10.00
2019-04-10T08:16:59.599Z,10.10
2019-04-10T08:19:29.422Z,10.10
2019-04-10T08:21:59.063Z,10.10
2019-04-10T08:24:28.344Z,10.20
2019-04-10T08:26:57.651Z,10.20
2019-04-10T08:29:27.040Z,10.30
2019-04-10T08:31:56.452Z,10.30
2019-04-10T08:34:26.103Z,10.50
2019-04-10T08:36:56.729Z,10.50
2019-04-10T08:39:35.322Z,10.50
2019-04-10T08:41:57.906Z,10.60
2019-04-10T08:44:27.750Z,10.70
2019-04-10T08:46:58.164Z,10.60
2019-04-10T08:49:28.280Z,10.70
2019-04-10T08:51:57.934Z,10.70
2019-04-10T08:54:28.101Z,10.70
2019-04-10T08:56:57.510Z,10.70
2019-04-10T08:59:27.842Z,10.70
2019-04-10T09:01:57.780Z,10.80
2019-04-10T09:04:27.159Z,11.00
2019-04-10T09:06:56.451Z,11.00
2019-04-10T09:09:25.782Z,11.00
2019-04-10T09:11:55.568Z,11.10
2019-04-10T09:14:25.239Z,11.10
2019-04-10T09:16:55.527Z,11.10
2019-04-10T09:19:25.665Z,11.30
2019-04-10T09:21:55.534Z,11.30
2019-04-10T09:24:25.841Z,11.40
2019-04-10T09:26:55.507Z,11.40
2019-04-10T09:29:25.801Z,11.30
2019-04-10T09:31:55.738Z,11.40
2019-04-10T09:34:25.592Z,11.30
2019-04-10T09:36:55.050Z,11.40
2019-04-10T09:39:25.415Z,11.40
2019-04-10T09:41:54.754Z,11.40
2019-04-10T09:44:24.059Z,11.40
2019-04-10T09:46:53.689Z,11.50
2019-04-10T09:49:33.769Z,11.50
2019-04-10T09:51:54.381Z,11.60
2019-04-10T09:54:24.066Z,11.70
2019-04-10T09:56:54.818Z,11.80
2019-04-10T09:59:33.225Z,11.80
2019-04-10T10:01:55.408Z,11.90
2019-04-10T10:04:25.799Z,12.00
2019-04-10T10:06:55.813Z,12.10
2019-04-10T10:09:26.110Z,12.30
2019-04-10T10:11:56.074Z,12.50
2019-04-10T10:14:26.460Z,12.70
2019-04-10T10:16:56.052Z,12.90
2019-04-10T10:19:25.969Z,13.10
2019-04-10T10:21:56.720Z,13.50
2019-04-10T10:24:26.768Z,14.00
2019-04-10T10:26:56.126Z,14.40
2019-04-10T10:29:25.963Z,14.80
2019-04-10T10:31:55.440Z,14.90
2019-04-10T10:34:24.786Z,15.00
2019-04-10T10:36:54.116Z,15.30
2019-04-10T10:39:23.451Z,15.20
2019-04-10T10:41:52.730Z,15.20
2019-04-10T10:44:22.036Z,14.80
2019-04-10T10:46:51.607Z,14.90
2019-04-10T10:49:21.182Z,15.10
2019-04-10T10:51:51.090Z,15.30
2019-04-10T10:54:21.110Z,15.50
2019-04-10T10:56:50.931Z,15.60
2019-04-10T10:59:21.711Z,15.70
2019-04-10T11:01:51.921Z,15.90
2019-04-10T11:04:21.383Z,15.90
2019-04-10T11:09:22.054Z,16.20
2019-04-10T11:11:51.635Z,16.30
2019-04-10T11:14:21.479Z,16.60
2019-04-10T11:16:51.639Z,16.60
2019-04-10T11:19:21.148Z,16.70
2019-04-10T11:21:51.007Z,16.80
2019-04-10T11:24:20.383Z,16.80
2019-04-10T11:26:50.395Z,16.80
2019-04-10T11:29:21.813Z,16.80
2019-04-10T11:31:51.332Z,17.00
2019-04-10T11:34:20.626Z,17.30
2019-04-10T11:37:11.302Z,17.60
2019-04-10T11:41:52.793Z,17.50
2019-04-10T11:44:22.139Z,17.30
2019-04-10T11:46:52.647Z,17.50
2019-04-10T11:49:23.190Z,17.50
2019-04-10T11:51:55.952Z,17.60
2019-04-10T11:54:26.911Z,17.80
2019-04-10T11:56:58.498Z,17.90
2019-04-10T11:59:26.486Z,17.90
2019-04-10T12:02:00.732Z,17.90
2019-04-10T12:04:30.525Z,17.90
2019-04-10T12:07:01.216Z,18.20
2019-04-10T12:10:47.894Z,17.90
2019-04-10T12:11:59.751Z,17.90
2019-04-10T12:14:29.988Z,17.80
2019-04-10T12:16:59.391Z,17.90
2019-04-10T12:19:29.070Z,17.80
2019-04-10T12:21:58.522Z,18.10
2019-04-10T12:24:28.052Z,18.40
2019-04-10T12:26:58.318Z,18.40
2019-04-10T12:29:28.851Z,18.60
2019-04-10T12:31:58.575Z,18.30
2019-04-10T12:34:28.519Z,18.50
2019-04-10T12:36:58.745Z,18.40
2019-04-10T12:39:28.304Z,18.60
2019-04-10T12:41:57.664Z,18.60
2019-04-10T12:44:27.199Z,18.50
2019-04-10T12:46:57.438Z,18.80
2019-04-10T12:49:27.678Z,18.80
2019-04-10T12:51:57.062Z,18.80
2019-04-10T12:54:27.924Z,19.00
2019-04-10T12:56:57.370Z,19.40
2019-04-10T12:59:27.688Z,19.50
2019-04-10T13:01:57.361Z,19.40
2019-04-10T13:04:26.815Z,19.10
2019-04-10T13:06:56.989Z,18.90
2019-04-10T13:09:26.292Z,18.70
2019-04-10T13:11:56.536Z,18.50
2019-04-10T13:14:26.483Z,18.70
2019-04-10T13:16:56.410Z,18.90
2019-04-10T13:19:25.787Z,18.90
2019-04-10T13:21:55.753Z,18.90
2019-04-10T13:24:25.686Z,19.10
2019-04-10T13:26:55.217Z,19.00
2019-04-10T13:29:24.967Z,18.90
2019-04-10T13:31:54.247Z,18.90
2019-04-10T13:34:24.916Z,18.90
2019-04-10T13:36:54.311Z,18.80
2019-04-10T13:39:24.602Z,18.80
2019-04-10T13:41:53.972Z,18.80
2019-04-10T13:44:23.253Z,18.40
2019-04-10T13:46:53.175Z,18.20
2019-04-10T13:49:22.651Z,17.80
2019-04-10T13:51:51.960Z,17.30
2019-04-10T13:54:21.251Z,17.20
2019-04-10T13:56:50.558Z,17.20
2019-04-10T13:59:20.683Z,17.10
2019-04-10T14:01:50.473Z,16.90
2019-04-10T14:04:19.917Z,16.90
2019-04-10T14:06:49.647Z,16.80
2019-04-10T14:09:31.217Z,16.60
2019-04-10T14:11:51.276Z,16.40
2019-04-10T14:14:20.968Z,16.30
2019-04-10T14:16:50.267Z,16.20
2019-04-10T14:19:19.571Z,16.30
2019-04-10T14:21:49.174Z,16.50
2019-04-10T14:24:19.967Z,16.80
2019-04-10T14:27:00.371Z,17.20
2019-04-10T14:29:30.185Z,17.50
2019-04-10T14:32:04.903Z,17.80
2019-04-10T14:34:34.543Z,18.20
2019-04-10T14:37:09.366Z,18.30
2019-04-10T14:39:39.586Z,18.60
2019-04-10T14:42:10.607Z,18.80
2019-04-10T14:44:40.930Z,18.90
2019-04-10T14:47:11.432Z,19.00
2019-04-10T14:49:41.554Z,18.60
2019-04-10T14:52:10.858Z,18.10
2019-04-10T14:54:40.137Z,17.70
2019-04-10T14:57:10.516Z,17.30
2019-04-10T14:59:40.326Z,17.30
2019-04-10T15:02:10.546Z,17.20
2019-04-10T15:04:40.162Z,17.40
2019-04-10T15:07:10.172Z,17.60
2019-04-10T15:09:39.542Z,17.60
2019-04-10T15:12:10.083Z,17.60
2019-04-10T15:14:39.927Z,17.60
2019-04-10T15:17:09.530Z,17.50
2019-04-10T15:19:39.094Z,17.60
2019-04-10T15:22:09.507Z,17.70
2019-04-10T15:24:39.704Z,17.60
2019-04-10T15:27:09.030Z,17.60
2019-04-10T15:29:38.622Z,17.50
2019-04-10T15:32:08.487Z,17.60
2019-04-10T15:34:37.938Z,17.50
2019-04-10T15:37:07.209Z,17.50
2019-04-10T15:39:39.119Z,17.40
2019-04-10T15:42:07.942Z,17.40
2019-04-10T15:44:38.286Z,17.40
2019-04-10T15:47:17.499Z,17.20
2019-04-10T15:49:40.674Z,16.80
2019-04-10T15:52:10.175Z,16.70
2019-04-10T15:54:40.415Z,16.50
2019-04-10T15:57:10.839Z,16.40
2019-04-10T15:59:40.655Z,16.50
2019-04-10T16:02:11.117Z,16.40
2019-04-10T16:04:40.585Z,16.50
2019-04-10T16:07:09.886Z,16.50
2019-04-10T16:09:47.456Z,16.30
2019-04-10T16:12:11.879Z,16.30
2019-04-10T16:14:41.194Z,16.30
2019-04-10T16:17:29.404Z,16.20
2019-04-10T16:20:06.999Z,16.00
2019-04-10T16:22:41.026Z,16.00
2019-04-10T16:25:13.740Z,16.10
2019-04-10T16:27:43.458Z,16.10
2019-04-10T16:30:15.935Z,15.80
2019-04-10T16:32:46.636Z,15.60
2019-04-10T16:35:16.238Z,15.60
2019-04-10T16:37:45.590Z,15.50
2019-04-10T16:40:15.028Z,15.40
2019-04-10T16:42:44.346Z,15.20
2019-04-10T16:45:14.007Z,15.10
2019-04-10T16:47:44.042Z,15.10
2019-04-10T16:50:13.567Z,15.20
2019-04-10T16:52:43.163Z,15.00
2019-04-10T16:55:12.779Z,14.90
2019-04-10T16:57:43.098Z,14.60
2019-04-10T17:00:15.277Z,14.30
2019-04-10T17:02:44.445Z,14.20
2019-04-10T17:05:14.479Z,13.90
2019-04-10T17:07:43.847Z,13.80
2019-04-10T17:10:20.415Z,13.70
2019-04-10T17:12:46.408Z,13.60
2019-04-10T17:15:17.767Z,13.50
2019-04-10T17:17:47.413Z,13.40
2019-04-10T17:20:17.075Z,13.20
2019-04-10T17:22:49.179Z,13.00
2019-04-10T17:25:18.042Z,12.80
2019-04-10T17:27:47.972Z,12.70
2019-04-10T17:30:17.787Z,12.70
2019-04-10T17:32:47.251Z,12.50
2019-04-10T17:35:16.529Z,12.30
2019-04-10T17:37:45.828Z,12.20
2019-04-10T17:40:27.494Z,12.00
2019-04-10T17:42:46.452Z,11.90
2019-04-10T17:45:15.899Z,11.80
2019-04-10T17:47:45.503Z,11.70
2019-04-10T17:50:16.264Z,11.60
2019-04-10T17:52:47.153Z,11.60
2019-04-10T17:55:17.631Z,11.50
2019-04-10T17:57:47.775Z,11.50
2019-04-10T18:00:22.968Z,11.40
2019-04-10T18:02:52.470Z,11.30
2019-04-10T18:05:22.412Z,11.30
2019-04-10T18:07:52.414Z,11.20
2019-04-10T18:10:22.576Z,11.20
2019-04-10T18:12:52.318Z,11.10
2019-04-10T18:15:21.991Z,11.10
2019-04-10T18:17:51.476Z,11.00
2019-04-10T18:20:22.002Z,10.90
2019-04-10T18:22:51.972Z,10.90
2019-04-10T18:25:22.214Z,10.80
2019-04-10T18:27:52.454Z,10.80
2019-04-10T18:30:21.830Z,10.70
2019-04-10T18:32:51.131Z,10.70
2019-04-10T18:35:20.530Z,10.70
2019-04-10T18:37:50.255Z,10.60
2019-04-10T18:40:19.544Z,10.50
2019-04-10T18:42:48.843Z,10.40
2019-04-10T18:45:18.349Z,10.40
2019-04-10T18:47:47.669Z,10.30
2019-04-10T18:50:18.283Z,10.30
2019-04-10T18:52:47.729Z,10.30
2019-04-10T18:55:17.007Z,10.20
2019-04-10T18:57:47.225Z,10.20
2019-04-10T19:00:36.499Z,10.20
2019-04-10T19:03:07.590Z,10.10
2019-04-10T19:05:38.636Z,10.00
2019-04-10T19:08:11.006Z,10.00
2019-04-10T19:10:39.063Z,9.90
2019-04-10T19:13:09.353Z,9.90
2019-04-10T19:15:40.513Z,9.90
2019-04-10T19:18:09.794Z,9.90
2019-04-10T19:20:39.066Z,9.80
2019-04-10T19:23:08.953Z,9.80
2019-04-10T19:25:38.968Z,9.70
2019-04-10T19:28:08.633Z,9.70
2019-04-10T19:30:43.551Z,9.60
2019-04-10T19:33:14.039Z,9.60
2019-04-10T19:35:43.467Z,9.50
2019-04-10T19:38:13.496Z,9.50
2019-04-10T19:40:43.790Z,9.50
2019-04-10T19:43:13.780Z,9.40
2019-04-10T19:45:43.912Z,9.40
2019-04-10T19:48:13.366Z,9.40
2019-04-10T19:50:43.717Z,9.40
2019-04-10T19:53:13.168Z,9.30
2019-04-10T19:55:42.458Z,9.20
2019-04-10T19:58:12.501Z,9.20
2019-04-10T20:00:42.240Z,9.20
2019-04-10T20:03:11.605Z,9.10
2019-04-10T20:05:41.484Z,9.10
2019-04-10T20:08:12.790Z,9.10
2019-04-10T20:10:41.947Z,9.00
2019-04-10T20:13:11.292Z,9.00
2019-04-10T20:15:40.912Z,9.00
2019-04-10T20:18:10.748Z,9.00
2019-04-10T20:20:40.063Z,9.00
2019-04-10T20:23:09.794Z,8.90
2019-04-10T20:25:39.219Z,8.90
2019-04-10T20:28:08.891Z,8.90
2019-04-10T20:30:38.671Z,8.90
2019-04-10T20:33:08.347Z,8.80
2019-04-10T20:35:37.715Z,8.70
2019-04-10T20:38:07.239Z,8.70
2019-04-10T20:40:36.560Z,8.70
2019-04-10T20:43:06.854Z,8.70
2019-04-10T20:45:37.839Z,8.70
2019-04-10T20:48:08.491Z,8.60
2019-04-10T20:50:37.930Z,8.60
2019-04-10T20:53:07.524Z,8.60
2019-04-10T20:55:37.662Z,8.60
2019-04-10T20:58:07.210Z,8.50
2019-04-10T21:00:38.692Z,8.50
2019-04-10T21:03:09.194Z,8.50
2019-04-10T21:05:38.909Z,8.70
2019-04-10T21:08:09.472Z,8.70
2019-04-10T21:10:39.147Z,8.80
2019-04-10T21:13:08.629Z,8.70
2019-04-10T21:15:38.002Z,8.70
2019-04-10T21:18:07.290Z,8.80
2019-04-10T21:20:36.663Z,8.80
2019-04-10T21:23:06.266Z,8.80
2019-04-10T21:25:36.083Z,8.70
2019-04-10T21:28:05.520Z,8.70
2019-04-10T21:30:42.763Z,8.60
2019-04-10T21:33:32.312Z,8.60
2019-04-10T21:36:01.843Z,8.50
2019-04-10T21:38:32.184Z,8.30
2019-04-10T21:41:01.624Z,8.30
2019-04-10T21:43:30.928Z,8.10
2019-04-10T21:46:00.550Z,8.10
2019-04-10T21:48:30.831Z,8.00
2019-04-10T21:51:00.606Z,8.00
2019-04-10T21:53:31.751Z,7.90
2019-04-10T21:56:02.016Z,7.90
2019-04-10T21:58:32.373Z,7.80
2019-04-10T22:01:07.479Z,7.80
2019-04-10T22:03:37.876Z,7.80
2019-04-10T22:06:17.875Z,7.70
2019-04-10T22:08:52.032Z,7.70
2019-04-10T22:11:21.434Z,7.60
2019-04-10T22:13:50.734Z,7.60
2019-04-10T22:16:22.083Z,7.60
2019-04-10T22:18:51.956Z,7.50
2019-04-10T22:21:21.379Z,7.50
2019-04-10T22:23:51.049Z,7.50
2019-04-10T22:26:20.439Z,7.50
2019-04-10T22:28:49.783Z,7.50
2019-04-10T22:31:20.228Z,7.50
2019-04-10T22:33:49.691Z,7.40
2019-04-10T22:36:19.265Z,7.40
2019-04-10T22:38:49.635Z,7.40
2019-04-10T22:41:26.861Z,7.30
2019-04-10T22:43:50.118Z,7.30
2019-04-10T22:46:19.406Z,7.30
2019-04-10T22:48:48.704Z,7.20
2019-04-10T22:51:19.216Z,7.20
2019-04-10T22:53:49.963Z,7.20
2019-04-10T22:56:19.408Z,7.20
2019-04-10T22:58:49.029Z,7.10
2019-04-10T23:01:18.584Z,7.10
2019-04-10T23:03:47.907Z,7.10
2019-04-10T23:06:17.385Z,7.10
2019-04-10T23:08:47.501Z,7.00
2019-04-10T23:11:17.483Z,7.00
2019-04-10T23:13:48.298Z,6.90
2019-04-10T23:16:17.892Z,6.90
2019-04-10T23:18:47.778Z,6.90
2019-04-10T23:21:17.226Z,6.90
2019-04-10T23:23:47.521Z,6.90
2019-04-10T23:26:17.506Z,6.80
2019-04-10T23:28:47.473Z,6.80
2019-04-10T23:31:17.333Z,6.80
2019-04-10T23:33:46.842Z,6.80
2019-04-10T23:36:16.150Z,6.80
2019-04-10T23:38:45.900Z,6.80
2019-04-10T23:41:15.664Z,6.70
2019-04-10T23:43:46.103Z,6.60
2019-04-10T23:46:15.514Z,6.60
2019-04-10T23:48:45.068Z,6.60
2019-04-10T23:51:14.738Z,6.70
2019-04-10T23:53:44.794Z,6.70
2019-04-10T23:56:14.201Z,6.60
2019-04-10T23:58:44.424Z,6.60
